Time;durP1;ratioP1;P1;durP2;ratioP2;P2;SDS_P1;SDS_P2;PMS_P1;PMS_P2;Temp;Humidity;BMP_temperature;BMP_pressure;BME280_temperature;BME280_humidity;BME280_pressure;Samples;Min_cycle;Max_cycle;Signal;HPM_P1;HPM_P2
2021/09/16 00:01:15;;;;;;;7.72;6.15;;;21.60;69.50;;;;;;6301508;28;20021;-38
2021/09/16 00:04:16;;;;;;;8.35;6.18;;;21.60;69.50;;;;;;6298508;28;20044;-39
2021/09/16 00:07:16;;;;;;;7.38;5.63;;;21.60;69.50;;;;;;6323884;28;20117;-41
2021/09/16 00:10:17;;;;;;;7.80;5.90;;;21.60;69.50;;;;;;6325070;28;20065;-37
2021/09/16 00:13:17;;;;;;;8.05;5.93;;;21.60;69.60;;;;;;6326295;28;20039;-37
2021/09/16 00:16:18;;;;;;;6.85;5.88;;;21.60;69.50;;;;;;6324760;28;20024;-37
2021/09/16 00:19:19;;;;;;;7.78;6.00;;;21.50;69.60;;;;;;6325850;28;20024;-40
2021/09/16 00:22:19;;;;;;;7.22;5.88;;;21.50;69.60;;;;;;6324926;28;20505;-39
2021/09/16 00:25:20;;;;;;;7.45;5.88;;;21.50;69.70;;;;;;6325720;28;20028;-39
2021/09/16 00:28:20;;;;;;;7.57;5.82;;;21.40;69.70;;;;;;6324216;28;20023;-40
2021/09/16 00:31:21;;;;;;;6.97;5.68;;;21.50;69.80;;;;;;6307555;28;20043;-43
2021/09/16 00:34:22;;;;;;;8.52;5.47;;;21.40;69.70;;;;;;6325100;28;20020;-40
2021/09/16 00:37:22;;;;;;;5.53;4.80;;;21.40;69.70;;;;;;6306253;28;20031;-39
2021/09/16 00:40:23;;;;;;;5.97;5.35;;;21.40;69.70;;;;;;6325369;28;20039;-37
2021/09/16 00:43:24;;;;;;;7.05;5.55;;;21.40;69.70;;;;;;6324435;28;20024;-37
2021/09/16 00:46:26;;;;;;;6.97;5.78;;;21.40;69.80;;;;;;6324764;28;20061;-42
2021/09/16 00:49:26;;;;;;;6.95;5.03;;;21.40;69.70;;;;;;6324359;28;20478;-44
2021/09/16 00:52:27;;;;;;;5.45;4.90;;;21.40;69.80;;;;;;6325006;28;20020;-40
2021/09/16 00:55:27;;;;;;;5.47;4.80;;;21.40;69.70;;;;;;6304110;28;20032;-36
2021/09/16 00:58:28;;;;;;;6.97;5.43;;;21.40;69.70;;;;;;6298937;28;20166;-42
2021/09/16 01:01:29;;;;;;;6.18;5.20;;;21.30;69.70;;;;;;6299094;28;20033;-42
2021/09/16 01:04:31;;;;;;;6.63;5.38;;;21.30;69.70;;;;;;6298928;28;20417;-35
2021/09/16 01:07:32;;;;;;;6.43;5.38;;;21.30;69.80;;;;;;6298405;28;20055;-40
2021/09/16 01:10:32;;;;;;;6.38;5.47;;;21.30;69.80;;;;;;6298686;28;20021;-40
2021/09/16 01:13:33;;;;;;;5.38;4.78;;;21.30;69.70;;;;;;6300327;28;20039;-40
2021/09/16 01:16:34;;;;;;;6.50;5.15;;;21.30;69.60;;;;;;6298268;28;20025;-35
2021/09/16 01:19:34;;;;;;;5.72;4.90;;;21.30;69.70;;;;;;6299563;28;20025;-33
2021/09/16 01:22:35;;;;;;;5.70;5.10;;;21.30;69.70;;;;;;6298809;28;20056;-41
2021/09/16 01:25:37;;;;;;;6.15;4.85;;;21.30;69.70;;;;;;6302862;28;20024;-36
2021/09/16 01:28:37;;;;;;;6.47;4.82;;;21.30;69.60;;;;;;6280574;28;20098;-39
2021/09/16 01:31:43;;;;;;;5.85;4.82;;;21.20;70.30;;;;;;6299253;28;20060;-42
2021/09/16 01:34:43;;;;;;;5.68;4.70;;;21.20;69.70;;;;;;6299269;28;20048;-35
2021/09/16 01:37:44;;;;;;;5.40;4.88;;;21.20;69.70;;;;;;6297843;28;20028;-34
2021/09/16 01:40:45;;;;;;;6.97;5.20;;;21.20;69.80;;;;;;6299250;28;20025;-35
2021/09/16 01:43:45;;;;;;;6.50;4.85;;;21.20;69.80;;;;;;6297273;28;20470;-31
2021/09/16 01:46:46;;;;;;;9.15;4.63;;;21.20;69.70;;;;;;6299373;28;20056;-38
2021/09/16 01:49:47;;;;;;;6.57;4.78;;;21.20;69.70;;;;;;6301894;28;20036;-34
2021/09/16 01:52:48;;;;;;;7.70;4.93;;;21.20;69.60;;;;;;6303785;28;20061;-39
2021/09/16 01:55:48;;;;;;;5.43;4.25;;;21.20;69.70;;;;;;6302545;28;20066;-37
2021/09/16 01:58:49;;;;;;;6.05;4.47;;;21.20;69.70;;;;;;6303238;28;20036;-34
2021/09/16 02:01:49;;;;;;;6.50;4.90;;;21.20;69.70;;;;;;6303324;28;20024;-39
2021/09/16 02:04:50;;;;;;;5.88;4.82;;;21.10;69.70;;;;;;6303738;28;20055;-35
2021/09/16 02:07:51;;;;;;;5.07;4.38;;;21.10;69.70;;;;;;6303329;28;20067;-40
2021/09/16 02:10:52;;;;;;;5.20;4.45;;;21.10;69.70;;;;;;6302783;28;20451;-40
2021/09/16 02:13:52;;;;;;;6.38;4.40;;;21.10;69.80;;;;;;6303251;28;20020;-39
2021/09/16 02:16:53;;;;;;;5.55;4.53;;;21.10;69.70;;;;;;6302125;28;20465;-38
2021/09/16 02:19:53;;;;;;;7.55;4.60;;;21.10;69.60;;;;;;6303315;28;20024;-41
2021/09/16 02:22:54;;;;;;;5.72;4.28;;;21.10;69.70;;;;;;6302198;28;20028;-35
2021/09/16 02:25:54;;;;;;;5.35;4.47;;;21.10;69.50;;;;;;6318247;28;20476;-40
2021/09/16 02:28:55;;;;;;;5.60;4.00;;;21.10;69.60;;;;;;6327146;28;20024;-40
2021/09/16 02:31:56;;;;;;;5.85;4.70;;;21.10;69.60;;;;;;6310265;28;20032;-38
2021/09/16 02:34:56;;;;;;;5.78;4.53;;;21.00;69.50;;;;;;6326860;28;20035;-40
2021/09/16 02:37:57;;;;;;;5.93;4.05;;;21.10;69.50;;;;;;6309877;28;20039;-38
2021/09/16 02:40:58;;;;;;;5.35;4.03;;;21.10;69.40;;;;;;6309975;28;20106;-41
2021/09/16 02:43:58;;;;;;;5.85;4.05;;;21.10;69.50;;;;;;6326929;28;20036;-32
2021/09/16 02:46:59;;;;;;;4.88;4.20;;;21.10;69.40;;;;;;6326847;28;20024;-35
2021/09/16 02:50:00;;;;;;;4.70;4.10;;;21.00;69.50;;;;;;6326836;28;20035;-43
2021/09/16 02:53:00;;;;;;;5.50;4.50;;;21.00;69.50;;;;;;6327587;28;20016;-39
2021/09/16 02:56:01;;;;;;;4.53;4.10;;;21.00;69.60;;;;;;6326502;28;20465;-33
2021/09/16 02:59:02;;;;;;;5.28;4.15;;;21.00;69.60;;;;;;6326886;28;20401;-34
2021/09/16 03:02:02;;;;;;;5.13;4.35;;;21.00;69.60;;;;;;6326596;28;20032;-39
2021/09/16 03:05:03;;;;;;;5.72;4.20;;;21.00;69.60;;;;;;6326919;28;20039;-40
2021/09/16 03:08:04;;;;;;;4.55;4.05;;;21.00;69.60;;;;;;6326993;28;20036;-36
2021/09/16 03:11:05;;;;;;;4.60;3.90;;;21.00;69.60;;;;;;6308522;28;20058;-37
2021/09/16 03:14:05;;;;;;;5.72;4.40;;;20.90;69.50;;;;;;6326958;28;20129;-37
2021/09/16 03:17:06;;;;;;;4.78;3.75;;;20.90;69.50;;;;;;6325688;28;20103;-37
2021/09/16 03:20:07;;;;;;;4.10;3.70;;;20.90;69.60;;;;;;6326753;28;20020;-31
2021/09/16 03:23:08;;;;;;;4.40;3.72;;;20.90;69.50;;;;;;6325852;28;20020;-35
2021/09/16 03:26:08;;;;;;;5.22;3.65;;;20.90;69.60;;;;;;6326381;28;20028;-34
2021/09/16 03:29:09;;;;;;;5.03;4.43;;;20.90;69.60;;;;;;6325825;28;20024;-37
2021/09/16 03:32:10;;;;;;;5.45;4.03;;;20.90;69.60;;;;;;6326649;28;20023;-36
2021/09/16 03:35:10;;;;;;;4.35;3.95;;;20.90;69.50;;;;;;6325413;28;20062;-36
2021/09/16 03:38:11;;;;;;;4.88;3.58;;;20.90;69.60;;;;;;6326251;28;20081;-37
2021/09/16 03:41:11;;;;;;;4.47;3.70;;;20.90;69.50;;;;;;6326797;28;20496;-35
2021/09/16 03:44:12;;;;;;;4.38;3.83;;;20.90;69.50;;;;;;6325356;28;20047;-37
2021/09/16 03:47:14;;;;;;;5.75;3.78;;;20.90;69.50;;;;;;6308186;28;20044;-38
2021/09/16 03:50:15;;;;;;;4.13;3.58;;;20.90;69.50;;;;;;6325458;28;20024;-41
2021/09/16 03:53:16;;;;;;;4.78;3.90;;;20.80;69.50;;;;;;6325863;28;20067;-39
2021/09/16 03:56:16;;;;;;;4.22;3.50;;;20.80;69.50;;;;;;6325046;28;20060;-35
2021/09/16 03:59:17;;;;;;;4.40;3.60;;;20.80;69.50;;;;;;6326301;28;20101;-39
2021/09/16 04:02:18;;;;;;;5.00;3.67;;;20.80;69.50;;;;;;6325085;28;20394;-38
2021/09/16 04:05:18;;;;;;;3.63;3.33;;;20.80;70.20;;;;;;6325821;28;20059;-41
2021/09/16 04:08:19;;;;;;;4.68;3.63;;;20.80;69.50;;;;;;6324685;28;20020;-37
2021/09/16 04:11:19;;;;;;;4.88;4.10;;;20.80;69.40;;;;;;6325041;28;20030;-39
2021/09/16 04:14:20;;;;;;;4.20;3.72;;;20.80;69.40;;;;;;6325656;28;20117;-41
2021/09/16 04:17:20;;;;;;;4.53;3.38;;;20.80;69.50;;;;;;6324323;28;20048;-43
2021/09/16 04:20:21;;;;;;;4.30;3.42;;;20.80;69.50;;;;;;6325964;28;20039;-37
2021/09/16 04:23:22;;;;;;;5.32;3.45;;;20.80;69.50;;;;;;6324577;28;20442;-42
2021/09/16 04:26:22;;;;;;;5.13;3.80;;;20.80;69.50;;;;;;6324504;28;20039;-38
2021/09/16 04:29:23;;;;;;;4.38;3.70;;;20.70;69.50;;;;;;6324338;28;20024;-37
2021/09/16 04:32:24;;;;;;;5.00;3.58;;;20.70;69.40;;;;;;6325779;28;20032;-37
2021/09/16 04:35:24;;;;;;;4.72;3.65;;;20.70;69.40;;;;;;6324868;28;20085;-39
2021/09/16 04:38:25;;;;;;;4.75;3.60;;;20.70;69.50;;;;;;6324741;28;20038;-41
2021/09/16 04:41:25;;;;;;;4.50;3.88;;;20.70;69.40;;;;;;6325384;28;20055;-41
2021/09/16 04:44:26;;;;;;;6.05;4.22;;;20.70;69.40;;;;;;6324318;28;20032;-41
2021/09/16 04:47:27;;;;;;;4.78;3.65;;;20.70;69.50;;;;;;6324686;28;20032;-34
2021/09/16 04:50:27;;;;;;;4.38;3.10;;;20.70;69.40;;;;;;6324198;28;20027;-39
2021/09/16 04:53:28;;;;;;;4.28;3.47;;;20.70;69.30;;;;;;6324836;28;20016;-37
2021/09/16 04:56:29;;;;;;;5.40;3.58;;;20.70;69.30;;;;;;6323590;28;20217;-42
2021/09/16 04:59:29;;;;;;;4.80;3.85;;;20.70;69.30;;;;;;6325361;28;20028;-34
2021/09/16 05:02:30;;;;;;;4.13;3.40;;;20.70;69.40;;;;;;6305910;28;20405;-43
2021/09/16 05:05:32;;;;;;;4.63;3.72;;;20.60;69.30;;;;;;6324942;28;20076;-34
2021/09/16 05:08:32;;;;;;;4.35;3.75;;;20.60;69.30;;;;;;6323689;28;20016;-43
2021/09/16 05:11:41;;;;;;;4.38;3.38;;;20.70;69.40;;;;;;6325384;28;20101;-39
2021/09/16 05:14:41;;;;;;;5.63;3.53;;;20.60;69.30;;;;;;6324839;28;20032;-41
2021/09/16 05:17:42;;;;;;;4.10;3.45;;;20.60;69.30;;;;;;6323336;28;20039;-33
2021/09/16 05:20:43;;;;;;;3.58;3.00;;;20.60;69.30;;;;;;6325932;28;20032;-40
2021/09/16 05:23:43;;;;;;;5.82;3.70;;;20.60;69.30;;;;;;6329231;28;20450;-40
2021/09/16 05:26:44;;;;;;;3.58;3.08;;;20.60;69.30;;;;;;6329406;28;20028;-41
2021/09/16 05:29:46;;;;;;;4.25;3.20;;;20.60;69.40;;;;;;6328733;28;20047;-41
2021/09/16 05:32:46;;;;;;;3.90;3.30;;;20.60;69.30;;;;;;6329786;28;20031;-39
2021/09/16 05:35:47;;;;;;;4.20;3.45;;;20.60;69.30;;;;;;6328422;28;20028;-38
2021/09/16 05:38:47;;;;;;;4.93;3.33;;;20.50;69.30;;;;;;6329756;28;20024;-41
2021/09/16 05:41:48;;;;;;;4.75;3.50;;;20.60;69.30;;;;;;6329063;28;20123;-31
2021/09/16 05:44:48;;;;;;;5.35;3.70;;;20.60;69.30;;;;;;6329308;28;20060;-37
2021/09/16 05:47:49;;;;;;;6.03;3.50;;;20.60;69.30;;;;;;6328849;28;20071;-35
2021/09/16 05:50:50;;;;;;;5.63;3.72;;;20.60;69.30;;;;;;6328272;28;20020;-35
2021/09/16 05:53:50;;;;;;;5.45;3.40;;;20.60;69.30;;;;;;6329427;28;20031;-40
2021/09/16 05:56:51;;;;;;;5.10;3.78;;;20.50;69.30;;;;;;6327925;28;20074;-34
2021/09/16 05:59:52;;;;;;;11.75;4.28;;;20.50;69.30;;;;;;6329097;28;20083;-34
2021/09/16 06:02:52;;;;;;;5.68;3.83;;;20.50;69.30;;;;;;6327993;28;20044;-34
2021/09/16 06:05:53;;;;;;;4.38;3.17;;;20.50;69.30;;;;;;6327825;28;20140;-36
2021/09/16 06:08:54;;;;;;;4.10;3.25;;;20.60;69.30;;;;;;6327716;28;20067;-38
2021/09/16 06:11:54;;;;;;;4.03;3.60;;;20.60;69.20;;;;;;6329142;28;20020;-40
2021/09/16 06:14:55;;;;;;;4.07;3.00;;;20.50;69.30;;;;;;6327976;28;20020;-39
2021/09/16 06:17:55;;;;;;;5.85;3.97;;;20.50;69.30;;;;;;6310922;28;20028;-33
2021/09/16 06:20:56;;;;;;;5.55;4.10;;;20.60;69.30;;;;;;6328914;28;20024;-38
2021/09/16 06:23:57;;;;;;;4.25;3.45;;;20.60;69.50;;;;;;6327563;28;20455;-40
2021/09/16 06:26:57;;;;;;;5.05;3.95;;;20.60;69.40;;;;;;6327417;28;20059;-38
2021/09/16 06:29:58;;;;;;;10.43;4.80;;;20.60;69.40;;;;;;6320900;28;20020;-40
2021/09/16 06:32:59;;;;;;;11.60;4.72;;;20.60;69.50;;;;;;6308441;28;20039;-44
2021/09/16 06:35:59;;;;;;;21.60;6.63;;;20.60;69.50;;;;;;6326229;28;20028;-35
2021/09/16 06:39:00;;;;;;;18.35;6.80;;;20.60;69.90;;;;;;6327937;28;20158;-35
2021/09/16 06:42:01;;;;;;;18.40;5.93;;;20.60;69.90;;;;;;6309197;28;20040;-36
2021/09/16 06:45:01;;;;;;;27.98;6.35;;;20.60;70.10;;;;;;6326222;28;20032;-37
2021/09/16 06:48:02;;;;;;;21.58;5.88;;;20.60;69.90;;;;;;6325577;28;20040;-38
2021/09/16 06:51:02;;;;;;;23.48;6.88;;;20.70;69.50;;;;;;6304481;28;20020;-42
2021/09/16 06:54:03;;;;;;;20.40;5.85;;;20.70;69.60;;;;;;6326801;28;20048;-38
2021/09/16 06:57:04;;;;;;;23.05;6.78;;;20.70;69.70;;;;;;6324699;28;20450;-39
2021/09/16 07:00:05;;;;;;;25.00;6.68;;;20.70;69.50;;;;;;6326445;28;20115;-38
2021/09/16 07:03:06;;;;;;;17.92;5.90;;;20.70;69.70;;;;;;6173458;28;63848;-37
2021/09/16 07:06:07;;;;;;;18.25;6.20;;;20.70;70.40;;;;;;6265685;28;20139;-39
2021/09/16 07:09:07;;;;;;;23.63;6.65;;;20.60;70.70;;;;;;6275903;28;20052;-37
2021/09/16 07:12:08;;;;;;;24.02;7.72;;;20.50;70.80;;;;;;6277250;28;20017;-37
2021/09/16 07:15:09;;;;;;;15.45;5.20;;;20.40;70.80;;;;;;6275554;28;20033;-37
2021/09/16 07:18:09;;;;;;;17.02;4.85;;;20.40;70.80;;;;;;6276394;28;20108;-37
2021/09/16 07:21:10;;;;;;;18.50;6.30;;;20.40;70.80;;;;;;6276263;28;20048;-38
2021/09/16 07:24:12;;;;;;;15.80;5.80;;;20.40;70.80;;;;;;6274962;28;20044;-38
2021/09/16 07:27:12;;;;;;;15.00;5.30;;;20.40;70.80;;;;;;6258053;28;20021;-38
2021/09/16 07:30:13;;;;;;;13.98;5.40;;;20.30;70.80;;;;;;6275108;28;20067;-38
2021/09/16 07:33:14;;;;;;;16.65;5.55;;;20.40;70.80;;;;;;6276216;28;20025;-38
2021/09/16 07:36:14;;;;;;;16.00;4.78;;;20.40;70.80;;;;;;6273841;28;20132;-38
2021/09/16 07:39:17;;;;;;;13.25;5.43;;;20.40;70.80;;;;;;6276252;28;20056;-38
2021/09/16 07:42:17;;;;;;;9.80;5.18;;;20.30;70.70;;;;;;6274848;28;20025;-38
2021/09/16 07:45:18;;;;;;;17.95;5.38;;;20.30;70.70;;;;;;6274244;28;20427;-38
2021/09/16 07:48:19;;;;;;;14.02;5.13;;;20.30;70.70;;;;;;6274608;28;20348;-38
2021/09/16 07:51:20;;;;;;;13.63;4.40;;;20.30;70.70;;;;;;6275467;28;20064;-38
2021/09/16 07:54:21;;;;;;;10.25;5.07;;;20.40;70.80;;;;;;6276082;28;20051;-38
2021/09/16 07:57:21;;;;;;;15.30;4.90;;;20.40;70.80;;;;;;6273823;28;20065;-38
2021/09/16 08:00:22;;;;;;;12.10;4.75;;;20.30;70.70;;;;;;6275664;28;20025;-38
2021/09/16 08:03:23;;;;;;;10.15;4.05;;;20.30;70.70;;;;;;6257440;28;20029;-38
2021/09/16 08:06:23;;;;;;;9.20;4.10;;;20.40;70.80;;;;;;6274672;28;20055;-38
2021/09/16 08:09:25;;;;;;;14.35;5.13;;;20.40;70.80;;;;;;6274501;28;20021;-38
2021/09/16 08:12:25;;;;;;;10.90;4.53;;;20.40;70.80;;;;;;6274866;28;20024;-38
2021/09/16 08:15:26;;;;;;;9.23;4.63;;;20.40;70.80;;;;;;6274011;28;20079;-37
2021/09/16 08:18:26;;;;;;;7.45;4.75;;;20.40;70.80;;;;;;6275383;28;20020;-37
2021/09/16 08:21:27;;;;;;;10.02;4.00;;;20.40;70.80;;;;;;6274525;28;20028;-37
2021/09/16 08:24:28;;;;;;;11.55;4.82;;;20.40;70.80;;;;;;6274550;28;20025;-37
2021/09/16 08:27:28;;;;;;;15.23;8.57;;;20.40;70.80;;;;;;6274214;28;20067;-37
2021/09/16 08:30:29;;;;;;;12.20;6.20;;;20.40;70.80;;;;;;6274075;28;20020;-37
2021/09/16 08:33:30;;;;;;;11.23;5.10;;;20.40;70.80;;;;;;6275299;28;20025;-37
2021/09/16 08:36:30;;;;;;;6.43;4.10;;;20.40;70.80;;;;;;6254734;28;20029;-38
2021/09/16 08:39:31;;;;;;;9.98;4.75;;;20.40;70.80;;;;;;6256550;28;20118;-37
2021/09/16 08:42:31;;;;;;;10.77;4.53;;;20.40;70.80;;;;;;6249996;28;20052;-39
2021/09/16 08:45:32;;;;;;;11.48;4.60;;;20.40;70.80;;;;;;6168192;28;20131;-37
2021/09/16 08:48:33;;;;;;;8.68;4.13;;;20.50;70.80;;;;;;6272822;28;20108;-36
2021/09/16 08:51:33;;;;;;;6.85;3.83;;;20.40;70.80;;;;;;6274619;28;20021;-37
2021/09/16 08:54:35;;;;;;;8.65;3.70;;;20.50;70.80;;;;;;6253777;28;20029;-36
2021/09/16 08:57:36;;;;;;;6.50;4.18;;;20.50;70.80;;;;;;6230774;28;20113;-37
2021/09/16 09:00:37;;;;;;;8.40;4.57;;;20.40;70.80;;;;;;6237702;28;20056;-36
2021/09/16 09:03:38;;;;;;;10.25;3.85;;;20.50;70.80;;;;;;6270451;28;20029;-37
2021/09/16 09:06:42;;;;;;;7.60;3.85;;;20.50;70.90;;;;;;6255853;28;20060;-37
2021/09/16 09:09:43;;;;;;;6.90;4.18;;;20.50;70.80;;;;;;6207361;28;20369;-35
2021/09/16 09:12:44;;;;;;;6.65;3.40;;;20.60;70.80;;;;;;6263523;28;20029;-35
2021/09/16 09:15:46;;;;;;;9.75;4.05;;;20.60;70.60;;;;;;6238973;28;20025;-36
2021/09/16 09:18:48;;;;;;;8.88;3.75;;;20.60;70.60;;;;;;6272481;28;20038;-37
2021/09/16 09:21:49;;;;;;;7.55;4.13;;;20.60;70.60;;;;;;6270240;28;20044;-37
2021/09/16 09:24:49;;;;;;;13.23;4.25;;;20.60;70.70;;;;;;6271989;28;20351;-36
2021/09/16 09:27:54;;;;;;;11.43;4.25;;;20.50;70.80;;;;;;6243630;28;20017;-35
2021/09/16 09:30:54;;;;;;;10.55;3.90;;;20.50;70.80;;;;;;6273461;28;20750;-36
2021/09/16 09:33:55;;;;;;;7.32;3.70;;;20.60;70.90;;;;;;6274650;28;20025;-37
2021/09/16 09:37:10;;;;;;;8.20;3.28;;;20.60;70.90;;;;;;6270981;28;20032;-37
2021/09/16 09:40:11;;;;;;;9.90;3.53;;;20.60;70.90;;;;;;6270339;28;20052;-36
2021/09/16 09:43:33;;;;;;;10.98;3.72;;;20.60;70.90;;;;;;6271175;28;20041;-36
2021/09/16 09:46:53;;;;;;;10.05;3.75;;;20.60;71.50;;;;;;6269462;28;20017;-37
2021/09/16 09:49:57;;;;;;;9.88;3.80;;;20.60;70.90;;;;;;6270964;28;20032;-37
2021/09/16 09:53:11;;;;;;;9.40;3.83;;;20.60;70.90;;;;;;6272732;28;20096;-36
2021/09/16 09:56:17;;;;;;;7.40;3.00;;;20.60;70.90;;;;;;6270825;28;20612;-37
2021/09/16 09:59:19;;;;;;;9.85;3.83;;;20.60;70.90;;;;;;6271308;28;20104;-37
2021/09/16 10:02:20;;;;;;;5.50;3.33;;;20.60;70.90;;;;;;6271622;28;20036;-37
2021/09/16 10:05:40;;;;;;;8.55;3.65;;;20.60;70.90;;;;;;6272032;28;20376;-37
2021/09/16 10:08:41;;;;;;;8.27;3.78;;;20.60;70.90;;;;;;6273636;28;20120;-37
2021/09/16 10:11:46;;;;;;;9.77;3.95;;;20.60;71.00;;;;;;6277076;28;20036;-36
2021/09/16 10:14:46;;;;;;;6.07;3.47;;;20.60;71.00;;;;;;6277308;28;20032;-37
2021/09/16 10:17:48;;;;;;;4.65;2.80;;;20.60;71.00;;;;;;6272837;28;20060;-37
2021/09/16 10:20:48;;;;;;;4.93;3.60;;;20.60;71.00;;;;;;6276862;28;20033;-44
2021/09/16 10:23:52;;;;;;;6.82;3.47;;;20.60;71.00;;;;;;6276002;28;20034;-36
2021/09/16 10:26:53;;;;;;;5.97;3.13;;;20.70;71.10;;;;;;6258380;28;20120;-36
2021/09/16 10:29:53;;;;;;;5.75;2.97;;;20.70;71.10;;;;;;6275478;28;20021;-36
2021/09/16 10:33:27;;;;;;;4.18;3.15;;;20.70;71.10;;;;;;6276553;28;20375;-37
2021/09/16 10:36:27;;;;;;;5.70;3.28;;;20.70;71.10;;;;;;6275228;28;20021;-37
2021/09/16 10:39:28;;;;;;;7.22;2.88;;;20.70;71.00;;;;;;6258588;28;20086;-36
2021/09/16 10:42:59;;;;;;;6.53;4.03;;;20.70;71.00;;;;;;6239520;28;20028;-37
2021/09/16 10:45:59;;;;;;;6.63;3.25;;;20.70;70.90;;;;;;6263593;28;20339;-38
2021/09/16 10:49:22;;;;;;;4.93;3.38;;;20.70;70.90;;;;;;6238124;28;20025;-37
2021/09/16 10:52:23;;;;;;;4.05;3.00;;;20.80;71.10;;;;;;6273663;28;20013;-37
2021/09/16 10:55:37;;;;;;;6.10;3.28;;;20.80;71.00;;;;;;6273988;28;20025;-36
2021/09/16 10:58:38;;;;;;;4.70;3.47;;;20.70;71.00;;;;;;6275986;28;20037;-37
2021/09/16 11:01:51;;;;;;;5.50;2.88;;;20.80;71.10;;;;;;6240746;28;20416;-36
2021/09/16 11:04:54;;;;;;;4.97;2.80;;;20.80;71.10;;;;;;6273009;28;20067;-37
2021/09/16 11:07:55;;;;;;;5.15;3.15;;;20.80;71.10;;;;;;6273882;28;20037;-36
2021/09/16 11:10:57;;;;;;;8.20;3.08;;;20.80;71.10;;;;;;6256536;28;20341;-38
2021/09/16 11:13:58;;;;;;;6.15;3.30;;;20.80;71.10;;;;;;6276022;28;20036;-36
2021/09/16 11:16:58;;;;;;;5.15;2.88;;;20.80;71.10;;;;;;6274063;28;20029;-36
2021/09/16 11:20:00;;;;;;;4.07;2.83;;;20.90;71.10;;;;;;6275390;28;20038;-36
2021/09/16 11:23:00;;;;;;;5.70;3.00;;;20.90;71.10;;;;;;6274913;28;20075;-37
2021/09/16 11:26:01;;;;;;;4.80;2.80;;;20.90;71.10;;;;;;6274872;28;20025;-37
2021/09/16 11:29:08;;;;;;;4.20;3.10;;;20.90;71.10;;;;;;6274925;28;20025;-37
2021/09/16 11:32:09;;;;;;;6.45;3.10;;;21.00;71.10;;;;;;6275628;28;20067;-37
2021/09/16 11:35:17;;;;;;;5.90;3.70;;;21.00;71.10;;;;;;6272163;28;20090;-36
2021/09/16 11:38:17;;;;;;;3.67;2.70;;;21.00;71.10;;;;;;6274747;28;20504;-37
2021/09/16 11:41:25;;;;;;;6.90;3.50;;;21.00;71.10;;;;;;6275292;28;20025;-36
2021/09/16 11:44:26;;;;;;;4.35;2.97;;;21.00;71.10;;;;;;6274231;28;20107;-37
2021/09/16 11:47:27;;;;;;;4.90;2.80;;;21.00;71.10;;;;;;6274593;28;20023;-37
2021/09/16 11:50:35;;;;;;;7.40;3.20;;;21.00;71.10;;;;;;6273687;28;20017;-39
2021/09/16 11:53:36;;;;;;;4.15;2.70;;;21.10;71.20;;;;;;6275289;28;20027;-38
2021/09/16 11:56:37;;;;;;;5.53;3.47;;;21.00;71.10;;;;;;6273884;28;20046;-38
2021/09/16 11:59:37;;;;;;;4.93;2.60;;;21.00;71.10;;;;;;6276013;28;20048;-39
2021/09/16 12:02:47;;;;;;;4.18;2.85;;;21.00;71.10;;;;;;6274078;28;20086;-38
2021/09/16 12:05:52;;;;;;;6.38;3.80;;;21.00;71.10;;;;;;6275165;28;20112;-38
2021/09/16 12:08:55;;;;;;;5.45;3.03;;;21.00;71.10;;;;;;6274181;28;20041;-38
2021/09/16 12:12:02;;;;;;;5.38;3.00;;;21.00;71.10;;;;;;6275829;28;20039;-38
2021/09/16 12:15:02;;;;;;;3.35;2.85;;;21.00;71.10;;;;;;6273809;28;20400;-38
2021/09/16 12:18:04;;;;;;;3.50;2.70;;;21.00;71.10;;;;;;6274921;28;20112;-38
2021/09/16 12:21:05;;;;;;;3.40;2.90;;;21.10;71.20;;;;;;6275382;28;20398;-38
2021/09/16 12:24:15;;;;;;;6.03;3.30;;;21.10;71.20;;;;;;6273108;28;20090;-38
2021/09/16 12:27:16;;;;;;;10.25;4.15;;;21.10;71.20;;;;;;6274127;28;20357;-38
2021/09/16 12:30:19;;;;;;;6.10;3.78;;;21.10;71.20;;;;;;6273506;28;20025;-37
2021/09/16 12:33:37;;;;;;;5.95;3.33;;;21.20;71.30;;;;;;6226475;28;20037;-38
2021/09/16 12:36:54;;;;;;;7.40;3.65;;;21.30;71.10;;;;;;6274054;28;20036;-38
2021/09/16 12:39:55;;;;;;;12.35;5.28;;;21.30;71.30;;;;;;6259880;28;20044;-38
2021/09/16 12:43:05;;;;;;;10.82;6.15;;;21.30;71.30;;;;;;6274255;28;20029;-38
2021/09/16 12:46:05;;;;;;;15.95;7.70;;;21.30;71.40;;;;;;6274462;28;20497;-38
2021/09/16 12:49:06;;;;;;;13.23;6.82;;;21.30;71.50;;;;;;6256414;28;20033;-39
2021/09/16 12:52:14;;;;;;;16.45;7.50;;;21.40;71.60;;;;;;6275150;28;20067;-39
2021/09/16 12:55:14;;;;;;;15.63;7.97;;;21.40;71.80;;;;;;6273758;28;20434;-38
2021/09/16 12:58:15;;;;;;;11.90;6.95;;;21.40;71.90;;;;;;6273486;28;20039;-39
2021/09/16 13:01:17;;;;;;;13.15;7.03;;;21.40;72.00;;;;;;6240528;28;20021;-39
2021/09/16 13:04:17;;;;;;;12.82;6.35;;;21.40;72.10;;;;;;6256528;28;20060;-39
2021/09/16 13:07:21;;;;;;;13.18;6.78;;;21.40;72.10;;;;;;6240537;28;20041;-38
2021/09/16 13:10:23;;;;;;;10.90;6.82;;;21.50;72.20;;;;;;6273347;28;20029;-38
2021/09/16 13:13:28;;;;;;;13.43;6.00;;;21.50;72.20;;;;;;6257712;28;20104;-39
2021/09/16 13:16:29;;;;;;;11.00;5.95;;;21.50;72.10;;;;;;6272741;28;20029;-38
2021/09/16 13:19:30;;;;;;;12.55;6.20;;;21.50;72.10;;;;;;6257410;28;20040;-38
2021/09/16 13:22:30;;;;;;;10.85;5.85;;;21.60;72.20;;;;;;6273415;28;20037;-38
2021/09/16 13:25:31;;;;;;;10.02;5.90;;;21.60;72.10;;;;;;6274206;28;20192;-39
2021/09/16 13:28:31;;;;;;;8.45;5.85;;;21.60;72.10;;;;;;6273136;28;20048;-38
2021/09/16 13:31:32;;;;;;;12.23;6.95;;;21.70;72.10;;;;;;6274684;28;20053;-38
2021/09/16 13:34:33;;;;;;;8.88;4.90;;;21.60;72.10;;;;;;6272894;28;20045;-38
2021/09/16 13:37:33;;;;;;;11.20;5.28;;;21.70;72.00;;;;;;6268436;28;20053;-37
2021/09/16 13:40:35;;;;;;;9.98;5.03;;;21.90;71.80;;;;;;6265349;28;20100;-38
2021/09/16 13:43:36;;;;;;;9.98;4.80;;;21.90;71.60;;;;;;6275346;28;20029;-40
2021/09/16 13:46:38;;;;;;;7.53;4.05;;;22.10;71.50;;;;;;6277931;28;20120;-36
2021/09/16 13:49:39;;;;;;;6.90;4.45;;;22.10;71.30;;;;;;6219209;28;20041;-39
2021/09/16 13:52:39;;;;;;;6.47;3.88;;;22.20;71.20;;;;;;6247617;28;20029;-38
2021/09/16 13:55:40;;;;;;;7.43;3.88;;;22.20;71.10;;;;;;6234208;28;20064;-37
2021/09/16 13:58:41;;;;;;;8.00;4.65;;;22.30;71.00;;;;;;6253425;28;20033;-36
2021/09/16 14:05:19;;;;;;;6.50;3.70;;;22.30;70.90;;;;;;6222985;28;20621;-37
2021/09/16 14:08:19;;;;;;;5.45;3.55;;;24.40;63.60;;;;;;6344685;28;20030;-41
2021/09/16 14:11:20;;;;;;;5.70;3.60;;;24.10;65.40;;;;;;6295267;28;20543;-47
2021/09/16 14:14:21;;;;;;;4.55;3.28;;;25.20;63.00;;;;;;6325453;28;20032;-43
2021/09/16 14:17:21;;;;;;;7.53;3.80;;;24.60;62.00;;;;;;6318609;28;20082;-41
2021/09/16 14:20:22;;;;;;;4.97;3.78;;;24.00;64.30;;;;;;6319944;28;20449;-43
2021/09/16 14:23:23;;;;;;;4.85;3.63;;;23.50;65.80;;;;;;6344000;28;20116;-43
2021/09/16 14:26:23;;;;;;;5.65;3.65;;;23.40;66.40;;;;;;6338359;28;20157;-43
2021/09/16 14:29:24;;;;;;;5.63;3.72;;;23.30;66.60;;;;;;6310376;28;20071;-43
2021/09/16 14:32:25;;;;;;;7.43;3.50;;;23.30;67.10;;;;;;6319706;28;20024;-43
2021/09/16 14:35:25;;;;;;;5.60;3.65;;;23.20;67.60;;;;;;6318334;28;20027;-42
2021/09/16 14:38:26;;;;;;;5.72;3.40;;;23.10;67.90;;;;;;6319493;28;20031;-41
2021/09/16 14:41:26;;;;;;;6.43;3.50;;;23.10;67.90;;;;;;6319548;28;20107;-44
2021/09/16 14:44:27;;;;;;;6.10;3.92;;;23.10;67.90;;;;;;6318204;28;20413;-41
2021/09/16 14:47:28;;;;;;;5.30;3.35;;;23.00;67.80;;;;;;6319175;28;20424;-39
2021/09/16 14:50:28;;;;;;;5.03;3.85;;;22.90;68.10;;;;;;6317544;28;20021;-44
2021/09/16 14:53:29;;;;;;;4.68;3.13;;;22.90;68.30;;;;;;6318806;28;20478;-47
2021/09/16 14:56:29;;;;;;;5.07;3.20;;;23.00;68.40;;;;;;6318306;28;20025;-42
2021/09/16 14:59:30;;;;;;;6.60;3.30;;;23.00;68.30;;;;;;6319825;28;20037;-45
2021/09/16 15:02:31;;;;;;;5.68;3.30;;;23.00;68.20;;;;;;6318728;28;20051;-44
2021/09/16 15:05:32;;;;;;;5.20;3.30;;;23.10;68.20;;;;;;6319959;28;20036;-40
2021/09/16 15:08:33;;;;;;;5.47;3.30;;;23.10;68.00;;;;;;6318624;28;20031;-41
2021/09/16 15:11:33;;;;;;;4.85;3.50;;;23.00;68.00;;;;;;6319783;28;20025;-41
2021/09/16 15:14:34;;;;;;;4.35;2.97;;;23.00;68.00;;;;;;6314092;28;20024;-44
2021/09/16 15:17:35;;;;;;;4.90;3.30;;;23.00;68.10;;;;;;6301537;28;20093;-45
2021/09/16 15:20:36;;;;;;;3.58;2.97;;;22.90;68.00;;;;;;6299388;28;20063;-43
2021/09/16 15:23:36;;;;;;;3.75;3.10;;;22.90;68.00;;;;;;6300610;28;20025;-41
2021/09/16 15:26:37;;;;;;;4.00;3.20;;;22.90;68.10;;;;;;6301795;28;20170;-42
2021/09/16 15:29:37;;;;;;;4.72;3.17;;;22.80;68.10;;;;;;6300910;28;20112;-44
2021/09/16 15:32:38;;;;;;;4.03;3.20;;;22.70;68.30;;;;;;6301907;28;20371;-40
2021/09/16 15:35:39;;;;;;;3.85;3.00;;;22.70;68.30;;;;;;6300458;28;20032;-40
2021/09/16 15:38:39;;;;;;;5.13;3.30;;;22.70;68.50;;;;;;6302380;28;20043;-42
2021/09/16 15:41:40;;;;;;;4.78;3.08;;;22.80;68.50;;;;;;6300897;28;20029;-42
2021/09/16 15:44:41;;;;;;;3.88;2.95;;;22.80;68.30;;;;;;6280594;28;20025;-43
2021/09/16 15:47:41;;;;;;;3.92;2.95;;;22.90;68.10;;;;;;6276965;28;20056;-43